Time;durP1;ratioP1;P1;durP2;ratioP2;P2;SDS_P1;SDS_P2;PMS_P1;PMS_P2;Temp;Humidity;BMP_temperature;BMP_pressure;BME280_temperature;BME280_humidity;BME280_pressure;Samples;Min_cycle;Max_cycle;Signal;HPM_P1;HPM_P2
2021/09/03 00:00:49;;;;;;;11.70;6.80;;;10.40;99.90;;;;;;8360347;28;20029;-65
2021/09/03 00:04:50;;;;;;;12.35;7.72;;;10.40;99.90;;;;;;8364302;28;20060;-66
2021/09/03 00:08:50;;;;;;;12.30;7.80;;;10.30;99.90;;;;;;8364301;28;20408;-64
2021/09/03 00:12:51;;;;;;;11.98;8.00;;;9.90;99.90;;;;;;8364159;28;20492;-65
2021/09/03 00:16:51;;;;;;;10.63;7.28;;;9.90;99.90;;;;;;8364170;28;20025;-65
2021/09/03 00:20:52;;;;;;;9.93;6.50;;;10.10;99.90;;;;;;8363914;28;20033;-65
2021/09/03 00:24:52;;;;;;;9.45;6.57;;;10.10;99.90;;;;;;8363546;28;20078;-65
2021/09/03 00:28:53;;;;;;;8.65;6.47;;;10.00;99.90;;;;;;8363621;28;20108;-65
2021/09/03 00:32:54;;;;;;;13.00;7.72;;;10.00;99.90;;;;;;8363641;28;20036;-65
2021/09/03 00:36:55;;;;;;;9.57;5.80;;;9.70;99.90;;;;;;8363035;28;20059;-65
2021/09/03 00:40:55;;;;;;;8.73;6.50;;;9.60;99.90;;;;;;8363124;28;20044;-65
2021/09/03 00:44:56;;;;;;;10.07;5.55;;;9.60;99.90;;;;;;8362832;28;20429;-65
2021/09/03 00:48:57;;;;;;;9.35;6.03;;;9.70;99.90;;;;;;8363039;28;20040;-66
2021/09/03 00:52:58;;;;;;;6.90;5.32;;;9.50;99.90;;;;;;8363011;28;20092;-65
2021/09/03 00:56:59;;;;;;;9.10;6.13;;;9.60;99.90;;;;;;8362758;28;20025;-65
2021/09/03 01:01:00;;;;;;;8.35;5.30;;;9.70;99.90;;;;;;8362409;28;20508;-65
2021/09/03 01:05:01;;;;;;;7.85;5.40;;;9.60;99.90;;;;;;8362349;28;20114;-65
2021/09/03 01:09:01;;;;;;;9.88;6.40;;;9.50;99.90;;;;;;8362498;28;20032;-65
2021/09/03 01:13:02;;;;;;;9.75;6.22;;;9.40;99.90;;;;;;8361381;28;20025;-65
2021/09/03 01:17:04;;;;;;;11.27;7.43;;;9.30;99.90;;;;;;8362102;28;20599;-65
2021/09/03 01:21:05;;;;;;;11.63;7.35;;;9.30;99.90;;;;;;8344182;28;20120;-65
2021/09/03 01:25:07;;;;;;;10.05;6.82;;;9.40;99.90;;;;;;8361858;28;20032;-64
2021/09/03 01:29:07;;;;;;;10.45;6.60;;;9.40;99.90;;;;;;8361786;28;20086;-65
2021/09/03 01:33:08;;;;;;;10.68;6.00;;;9.40;99.90;;;;;;8361914;28;20112;-65
2021/09/03 01:37:09;;;;;;;10.75;5.93;;;9.20;99.90;;;;;;8361102;28;20087;-65
2021/09/03 01:41:10;;;;;;;7.85;5.88;;;9.30;99.90;;;;;;8361355;28;20099;-65
2021/09/03 01:45:11;;;;;;;7.82;6.13;;;9.20;99.90;;;;;;8361376;28;20036;-66
2021/09/03 01:49:11;;;;;;;9.10;6.10;;;9.20;99.90;;;;;;8361242;28;20103;-65
2021/09/03 01:53:12;;;;;;;9.40;5.85;;;9.00;99.90;;;;;;8361392;28;20392;-65
2021/09/03 01:57:13;;;;;;;10.20;6.45;;;8.80;99.90;;;;;;8361249;28;20025;-65
2021/09/03 02:01:13;;;;;;;8.90;6.45;;;9.00;99.90;;;;;;8361102;28;20118;-65
2021/09/03 02:05:14;;;;;;;8.45;6.28;;;9.00;99.90;;;;;;8360681;28;20039;-65
2021/09/03 02:09:14;;;;;;;9.43;6.20;;;8.70;99.90;;;;;;8360664;28;20048;-65
2021/09/03 02:13:15;;;;;;;7.28;5.40;;;8.60;99.90;;;;;;8360682;28;20095;-65
2021/09/03 02:17:15;;;;;;;9.57;6.75;;;8.60;99.90;;;;;;8360223;28;20029;-64
2021/09/03 02:21:16;;;;;;;9.93;6.00;;;8.70;99.90;;;;;;8360150;28;20064;-65
2021/09/03 02:25:17;;;;;;;14.55;5.85;;;8.50;99.90;;;;;;8359833;28;20409;-65
2021/09/03 02:29:17;;;;;;;7.68;5.75;;;8.40;99.90;;;;;;8359935;28;20036;-65
2021/09/03 02:33:18;;;;;;;12.85;6.75;;;8.10;99.90;;;;;;8359297;28;20029;-64
2021/09/03 02:37:18;;;;;;;9.05;6.55;;;8.00;99.90;;;;;;8359004;28;20021;-65
2021/09/03 02:41:19;;;;;;;9.57;6.53;;;8.00;99.90;;;;;;8358277;28;20040;-66
2021/09/03 02:45:20;;;;;;;9.32;6.60;;;8.00;99.90;;;;;;8359648;28;20024;-66
2021/09/03 02:49:21;;;;;;;10.95;6.40;;;8.10;99.90;;;;;;8359685;28;20111;-66
2021/09/03 02:53:21;;;;;;;8.82;6.20;;;8.60;99.90;;;;;;8359584;28;20028;-66
2021/09/03 02:57:22;;;;;;;8.40;6.10;;;8.60;99.90;;;;;;8358634;28;20032;-66
2021/09/03 03:01:22;;;;;;;9.20;5.80;;;8.40;99.90;;;;;;8358698;28;20028;-66
2021/09/03 03:05:24;;;;;;;8.45;5.82;;;8.30;99.90;;;;;;8360917;28;20649;-66
2021/09/03 03:09:24;;;;;;;7.55;4.97;;;8.30;99.90;;;;;;8391946;28;20165;-66
2021/09/03 03:13:28;;;;;;;9.85;5.72;;;8.20;99.90;;;;;;8385013;28;20047;-66
2021/09/03 03:17:28;;;;;;;13.80;6.82;;;8.00;99.90;;;;;;8373680;28;20062;-66
2021/09/03 03:21:29;;;;;;;11.77;6.65;;;8.00;99.90;;;;;;8374217;28;20060;-66
2021/09/03 03:25:29;;;;;;;11.32;6.72;;;7.90;99.90;;;;;;8370299;28;20037;-66
2021/09/03 03:29:30;;;;;;;10.60;7.40;;;7.90;99.90;;;;;;8388368;28;20032;-66
2021/09/03 03:33:30;;;;;;;10.15;6.35;;;8.00;99.90;;;;;;8391194;28;20067;-66
2021/09/03 03:37:31;;;;;;;7.78;5.53;;;8.00;99.90;;;;;;8372820;28;20384;-66
2021/09/03 03:41:31;;;;;;;9.80;5.85;;;8.00;99.90;;;;;;8391322;28;20067;-66
2021/09/03 03:45:32;;;;;;;9.20;6.30;;;8.10;99.90;;;;;;8391083;28;20089;-66
2021/09/03 03:49:33;;;;;;;9.90;6.00;;;8.30;99.90;;;;;;8389679;28;20029;-66
2021/09/03 03:53:33;;;;;;;8.18;5.75;;;8.10;99.90;;;;;;8390992;28;20460;-66
2021/09/03 03:57:34;;;;;;;9.60;6.47;;;7.80;99.90;;;;;;8389997;28;20401;-66
2021/09/03 04:01:35;;;;;;;16.70;7.38;;;7.70;99.90;;;;;;8391021;28;20025;-66
2021/09/03 04:05:35;;;;;;;11.43;6.32;;;7.60;99.90;;;;;;8390273;28;20032;-66
2021/09/03 04:09:36;;;;;;;9.02;6.70;;;7.60;99.90;;;;;;8390912;28;20107;-66
2021/09/03 04:13:36;;;;;;;8.40;5.72;;;7.70;99.90;;;;;;8382676;28;20061;-66
2021/09/03 04:17:37;;;;;;;7.28;4.85;;;7.60;99.90;;;;;;8377105;28;20033;-66
2021/09/03 04:21:38;;;;;;;8.55;5.18;;;7.60;99.90;;;;;;8359380;28;20087;-66
2021/09/03 04:25:39;;;;;;;6.95;5.18;;;7.70;99.90;;;;;;8373344;28;20032;-66
2021/09/03 04:29:39;;;;;;;9.82;5.78;;;7.70;99.90;;;;;;8361876;28;20428;-66
2021/09/03 04:33:40;;;;;;;10.80;6.00;;;7.30;99.90;;;;;;8357283;28;20057;-66
2021/09/03 04:37:47;;;;;;;12.88;7.47;;;7.60;99.90;;;;;;8358277;28;20033;-66
2021/09/03 04:41:48;;;;;;;20.00;9.10;;;7.50;99.90;;;;;;8358573;28;20029;-66
2021/09/03 04:45:48;;;;;;;12.75;7.75;;;7.70;99.90;;;;;;8359479;28;20037;-66
2021/09/03 04:49:49;;;;;;;14.07;8.40;;;7.80;99.90;;;;;;8347232;28;20036;-66
2021/09/03 04:53:50;;;;;;;15.30;8.57;;;7.70;99.90;;;;;;8386376;28;20037;-66
2021/09/03 04:57:50;;;;;;;11.32;7.10;;;7.80;99.90;;;;;;8392341;28;20027;-66
2021/09/03 05:01:51;;;;;;;16.98;8.82;;;8.00;99.90;;;;;;8380095;28;20060;-66
2021/09/03 05:05:51;;;;;;;12.98;8.50;;;7.90;99.90;;;;;;8389506;28;20063;-66
2021/09/03 05:09:52;;;;;;;15.63;7.85;;;8.00;99.90;;;;;;8375884;28;20078;-66
2021/09/03 05:13:52;;;;;;;14.15;8.20;;;8.20;99.90;;;;;;8378714;28;20103;-66
2021/09/03 05:17:53;;;;;;;10.90;6.85;;;8.30;99.90;;;;;;8382392;28;20052;-66
2021/09/03 05:21:54;;;;;;;9.68;6.40;;;9.10;99.90;;;;;;8359493;28;20689;-66
2021/09/03 05:25:55;;;;;;;8.95;5.90;;;9.20;99.90;;;;;;8359302;28;20060;-66
2021/09/03 05:29:55;;;;;;;12.57;6.30;;;9.10;99.90;;;;;;8359560;28;20024;-65
2021/09/03 05:33:56;;;;;;;7.57;5.60;;;9.10;99.90;;;;;;8360091;28;20033;-65
2021/09/03 05:37:57;;;;;;;9.93;6.15;;;9.10;99.90;;;;;;8361258;28;20044;-64
2021/09/03 05:41:57;;;;;;;11.90;6.53;;;9.20;99.90;;;;;;8361122;28;20582;-66
2021/09/03 05:45:58;;;;;;;11.80;7.07;;;9.40;99.90;;;;;;8363535;28;20049;-66
2021/09/03 05:49:58;;;;;;;15.23;7.32;;;9.50;99.90;;;;;;8361068;28;20078;-66
2021/09/03 05:54:07;;;;;;;9.50;7.07;;;9.70;99.90;;;;;;8361143;28;20033;-66
2021/09/03 05:58:07;;;;;;;13.68;8.65;;;9.80;99.90;;;;;;8360799;28;20068;-66
2021/09/03 06:02:08;;;;;;;10.73;7.75;;;10.10;99.90;;;;;;8360867;28;20047;-66
2021/09/03 06:06:08;;;;;;;12.55;8.40;;;10.20;99.90;;;;;;8360499;28;20033;-66
2021/09/03 06:10:10;;;;;;;11.02;7.78;;;10.30;99.90;;;;;;8342742;28;20029;-66
2021/09/03 06:14:11;;;;;;;15.65;11.00;;;10.70;99.90;;;;;;8360545;28;20029;-67
2021/09/03 06:18:12;;;;;;;11.50;8.27;;;10.90;99.90;;;;;;8366724;28;20503;-66
2021/09/03 06:22:13;;;;;;;10.63;7.40;;;11.20;99.90;;;;;;8360489;28;20021;-67
2021/09/03 06:26:13;;;;;;;8.15;6.25;;;11.30;99.90;;;;;;8360001;28;20094;-66
2021/09/03 06:30:15;;;;;;;8.73;6.40;;;11.70;99.90;;;;;;8359666;28;20385;-67
2021/09/03 06:34:16;;;;;;;9.48;6.50;;;11.80;99.90;;;;;;8359811;28;20041;-67
2021/09/03 06:38:16;;;;;;;10.45;6.60;;;11.90;99.90;;;;;;8359754;28;20023;-67
2021/09/03 06:42:17;;;;;;;9.75;6.63;;;12.20;99.90;;;;;;8359626;28;20052;-67
2021/09/03 06:46:18;;;;;;;10.70;7.22;;;12.30;99.90;;;;;;8367084;28;20582;-67
2021/09/03 06:50:19;;;;;;;12.98;9.57;;;12.60;99.90;;;;;;8359167;28;20029;-67
2021/09/03 06:54:19;;;;;;;13.80;9.27;;;12.80;99.90;;;;;;8359341;28;20021;-67
2021/09/03 06:58:20;;;;;;;10.48;8.48;;;13.00;99.90;;;;;;8359262;28;20078;-67
2021/09/03 07:02:20;;;;;;;12.98;9.25;;;13.30;99.90;;;;;;8359050;28;20075;-67
2021/09/03 07:06:21;;;;;;;18.77;12.35;;;13.50;99.90;;;;;;8358666;28;20558;-67
2021/09/03 07:10:21;;;;;;;14.43;10.45;;;13.60;99.90;;;;;;8358069;28;20115;-67
2021/09/03 07:14:22;;;;;;;14.57;9.60;;;13.80;99.90;;;;;;8358710;28;20036;-67
2021/09/03 07:18:22;;;;;;;13.73;9.13;;;13.90;99.90;;;;;;8358465;28;20079;-67
2021/09/03 07:22:23;;;;;;;12.77;8.73;;;14.20;99.90;;;;;;8358284;28;20033;-67
2021/09/03 07:26:23;;;;;;;13.30;9.77;;;14.40;99.90;;;;;;8358280;28;20119;-67
2021/09/03 07:30:24;;;;;;;15.07;10.07;;;14.50;99.90;;;;;;8358494;28;20108;-67
2021/09/03 07:34:25;;;;;;;14.65;9.45;;;14.70;99.90;;;;;;8358239;28;20032;-67
2021/09/03 07:38:27;;;;;;;13.95;9.70;;;14.90;99.90;;;;;;8358419;28;20025;-67
2021/09/03 07:42:28;;;;;;;10.70;8.27;;;14.90;99.90;;;;;;8358342;28;20025;-67
2021/09/03 07:46:28;;;;;;;13.85;9.00;;;15.10;99.90;;;;;;8357976;28;20029;-67
2021/09/03 07:50:29;;;;;;;13.38;9.18;;;15.10;99.90;;;;;;8359428;28;20044;-67
2021/09/03 07:54:30;;;;;;;16.40;12.20;;;15.20;99.90;;;;;;8342659;28;20026;-67
2021/09/03 07:58:31;;;;;;;15.23;9.35;;;15.30;99.90;;;;;;8358532;28;20392;-67
2021/09/03 08:02:31;;;;;;;11.05;8.40;;;15.50;99.90;;;;;;8358009;28;20036;-67
2021/09/03 08:06:32;;;;;;;13.50;9.00;;;15.80;99.90;;;;;;8360451;28;20032;-67
2021/09/03 08:10:34;;;;;;;13.02;8.68;;;16.00;99.90;;;;;;8357905;28;20141;-67
2021/09/03 08:14:35;;;;;;;10.50;8.07;;;16.10;99.90;;;;;;8357637;28;20104;-67
2021/09/03 08:18:36;;;;;;;11.15;7.85;;;16.40;99.90;;;;;;8358131;28;20040;-67
2021/09/03 08:22:36;;;;;;;12.48;8.65;;;16.70;99.90;;;;;;8361692;28;20057;-67
2021/09/03 08:26:38;;;;;;;11.73;8.30;;;16.90;99.90;;;;;;8363741;28;20048;-67
2021/09/03 08:30:38;;;;;;;13.27;10.13;;;17.30;99.90;;;;;;8363790;28;20017;-67
2021/09/03 08:34:41;;;;;;;10.05;7.97;;;17.40;99.90;;;;;;8363563;28;20036;-67
2021/09/03 08:38:41;;;;;;;10.55;7.82;;;17.70;99.90;;;;;;8363674;28;20027;-67
2021/09/03 08:42:42;;;;;;;11.82;7.95;;;17.80;99.90;;;;;;8411737;23;20490;-65
2021/09/03 08:46:47;;;;;;;11.60;8.05;;;18.10;99.90;;;;;;8378023;28;20047;-66
2021/09/03 08:50:49;;;;;;;10.63;7.88;;;18.10;99.90;;;;;;8396161;28;20028;-66
2021/09/03 08:54:50;;;;;;;10.18;7.85;;;18.30;99.90;;;;;;8395191;28;20047;-65
2021/09/03 08:58:50;;;;;;;10.27;8.07;;;18.40;99.90;;;;;;8396186;28;20028;-65
2021/09/03 09:02:58;;;;;;;14.85;10.05;;;18.50;99.90;;;;;;8395889;28;20372;-66
2021/09/03 09:07:03;;;;;;;10.65;8.10;;;18.60;99.90;;;;;;8377794;28;20020;-66
2021/09/03 09:11:09;;;;;;;12.02;8.73;;;18.80;99.90;;;;;;8395935;28;20028;-65
2021/09/03 09:15:10;;;;;;;11.38;8.38;;;19.00;99.90;;;;;;8395302;28;20216;-66
2021/09/03 09:19:11;;;;;;;10.82;8.18;;;19.00;99.90;;;;;;8377921;28;20029;-66
2021/09/03 09:23:12;;;;;;;10.95;8.52;;;19.10;99.90;;;;;;8362735;28;20481;-66
2021/09/03 09:27:24;;;;;;;12.48;8.63;;;19.50;99.90;;;;;;8361689;28;20025;-66
2021/09/03 09:31:37;;;;;;;11.25;7.88;;;19.70;99.90;;;;;;8361206;28;20029;-66
2021/09/03 09:35:45;;;;;;;14.18;9.48;;;19.90;99.90;;;;;;8360267;28;20014;-65
2021/09/03 09:39:57;;;;;;;11.63;7.93;;;20.30;99.90;;;;;;8343836;28;20068;-65
2021/09/03 09:43:58;;;;;;;11.32;8.55;;;20.50;99.90;;;;;;8361457;28;20647;-65
2021/09/03 09:48:03;;;;;;;11.48;7.88;;;20.60;99.90;;;;;;8360873;28;20036;-65
2021/09/03 09:52:05;;;;;;;11.48;8.35;;;20.60;99.90;;;;;;8360223;28;20028;-65
2021/09/03 09:56:06;;;;;;;13.35;9.55;;;20.60;99.90;;;;;;8360430;28;20025;-65
2021/09/03 10:00:07;;;;;;;12.52;9.45;;;20.50;99.90;;;;;;8368196;28;20632;-65
2021/09/03 10:04:13;;;;;;;12.45;8.43;;;20.60;99.90;;;;;;8373835;28;20082;-66
2021/09/03 10:08:13;;;;;;;9.43;8.40;;;21.10;99.90;;;;;;8393633;28;20648;-66
2021/09/03 10:12:15;;;;;;;12.68;10.40;;;21.20;99.90;;;;;;8378729;28;20040;-65
2021/09/03 10:16:15;;;;;;;12.48;10.35;;;21.10;99.90;;;;;;8359737;28;20178;-65
2021/09/03 10:20:16;;;;;;;13.50;10.43;;;21.10;99.90;;;;;;8362620;28;20021;-66
2021/09/03 10:24:23;;;;;;;13.60;10.32;;;21.40;99.90;;;;;;8342281;28;20515;-65
2021/09/03 10:28:26;;;;;;;13.65;10.88;;;21.60;99.90;;;;;;8362462;28;20037;-65
2021/09/03 10:32:35;;;;;;;10.35;8.88;;;21.50;99.90;;;;;;8376382;28;20040;-65
2021/09/03 10:36:55;;;;;;;11.27;9.25;;;21.60;99.90;;;;;;8392277;28;20409;-65
2021/09/03 10:40:56;;;;;;;13.27;10.30;;;21.60;99.90;;;;;;8391267;28;20035;-65
2021/09/03 10:45:08;;;;;;;11.57;9.80;;;21.70;99.90;;;;;;8361490;28;20029;-65
2021/09/03 10:49:10;;;;;;;11.90;9.40;;;21.80;99.90;;;;;;8366307;28;20057;-65
2021/09/03 10:53:10;;;;;;;12.00;8.85;;;21.90;99.90;;;;;;8341145;28;20561;-65
2021/09/03 10:57:15;;;;;;;11.63;7.70;;;22.60;99.90;;;;;;8358897;28;20018;-65
2021/09/03 11:01:16;;;;;;;10.10;8.52;;;23.20;99.90;;;;;;8358971;28;20029;-66
2021/09/03 11:05:16;;;;;;;;;;;24.60;99.90;;;;;;8358764;28;20020;-66
2021/09/03 11:09:17;;;;;;;;;;;28.70;99.90;;;;;;8384745;28;20384;-66
2021/09/03 11:13:17;;;;;;;9.80;8.52;;;30.70;93.70;;;;;;8381221;28;20427;-65
2021/09/03 11:17:18;;;;;;;;;;;30.70;89.20;;;;;;8374116;28;20052;-66
2021/09/03 11:21:28;;;;;;;;;;;31.60;84.60;;;;;;8361682;28;19908;-66
2021/09/03 11:25:28;;;;;;;;;;;34.10;75.40;;;;;;8374209;28;20318;-67
2021/09/03 11:29:30;;;;;;;;;;;36.50;64.60;;;;;;8371313;28;19916;-67
2021/09/03 11:33:31;;;;;;;;;;;38.40;55.30;;;;;;8368797;28;20384;-66
2021/09/03 11:37:34;;;;;;;;;;;38.60;51.80;;;;;;8358792;28;19988;-64
2021/09/03 11:41:35;;;;;;;;;;;39.00;47.30;;;;;;8387528;28;19912;-64
2021/09/03 11:45:38;;;;;;;;;;;39.20;48.40;;;;;;8391860;28;20399;-64
2021/09/03 11:49:39;;;;;;;;;;;40.40;45.20;;;;;;8370170;28;19912;-64
2021/09/03 11:53:39;;;;;;;;;;;41.50;43.20;;;;;;8358448;28;19990;-64
2021/09/03 11:57:49;;;;;;;;;;;41.90;41.40;;;;;;8362246;28;20336;-64
2021/09/03 12:02:05;;;;;;;;;;;41.20;39.70;;;;;;8364934;28;19930;-64
2021/09/03 12:06:07;;;;;;;;;;;40.40;42.50;;;;;;8346965;28;19905;-64
2021/09/03 12:10:07;;;;;;;;;;;41.00;37.60;;;;;;8365051;28;19930;-64
2021/09/03 12:14:10;;;;;;;;;;;39.70;40.00;;;;;;8374344;28;19915;-64
2021/09/03 12:18:22;;;;;;;;;;;40.70;36.80;;;;;;8383650;28;19909;-64
2021/09/03 12:22:23;;;;;;;;;;;38.90;39.80;;;;;;8364108;28;19908;-64
2021/09/03 12:26:24;;;;;;;;;;;39.40;37.80;;;;;;8368669;28;19999;-64
2021/09/03 12:30:25;;;;;;;;;;;40.40;37.90;;;;;;8364367;28;19905;-64
2021/09/03 12:34:27;;;;;;;;;;;41.70;37.70;;;;;;8366795;28;19931;-64
2021/09/03 12:38:29;;;;;;;;;;;43.40;36.10;;;;;;8363991;28;20364;-64
2021/09/03 12:42:37;;;;;;;;;;;43.70;32.60;;;;;;8345916;28;20299;-64
2021/09/03 12:46:39;;;;;;;;;;;43.40;33.60;;;;;;8363798;28;19928;-63
2021/09/03 12:50:43;;;;;;;;;;;39.90;36.90;;;;;;8372409;28;19959;-63
2021/09/03 12:54:44;;;;;;;;;;;39.10;37.80;;;;;;8396296;28;20398;-64
2021/09/03 12:58:45;;;;;;;;;;;40.90;37.70;;;;;;8378348;28;19908;-64
2021/09/03 13:02:45;;;;;;;;;;;42.90;35.80;;;;;;8386014;28;19908;-63
2021/09/03 13:06:49;;;;;;;;;;;43.00;33.60;;;;;;8378425;28;20334;-64
2021/09/03 13:10:49;;;;;;;;;;;42.90;33.00;;;;;;8377791;28;19908;-64
2021/09/03 13:14:50;;;;;;;;;;;45.10;31.70;;;;;;8378528;28;20411;-65
2021/09/03 13:18:50;;;;;;;;;;;46.80;30.00;;;;;;8360484;28;19909;-64
2021/09/03 13:22:51;;;;;;;;;;;45.80;28.60;;;;;;8370086;28;19909;-64
2021/09/03 13:26:51;;;;;;;;;;;45.30;30.60;;;;;;8391723;28;20038;-64
2021/09/03 13:30:52;;;;;;;;;;;45.40;29.40;;;;;;8379862;28;19908;-64
2021/09/03 13:34:52;;;;;;;;;;;46.80;29.10;;;;;;8378997;28;19909;-64
2021/09/03 13:38:56;;;;;;;;;;;47.60;28.80;;;;;;8374621;28;19966;-64
2021/09/03 13:42:56;;;;;;;;;;;46.40;28.10;;;;;;8388852;28;19963;-64
2021/09/03 13:46:56;;;;;;;;;;;44.30;30.00;;;;;;8371097;28;19916;-63
2021/09/03 13:50:57;;;;;;;7.30;4.65;;;41.70;31.90;;;;;;8357377;28;20416;-64
2021/09/03 13:54:57;;;;;;;4.43;4.03;;;41.80;33.60;;;;;;8358959;28;20028;-64
2021/09/03 13:58:58;;;;;;;4.75;4.35;;;45.00;30.40;;;;;;8343115;28;20076;-64
2021/09/03 14:02:59;;;;;;;4.50;4.10;;;46.60;28.70;;;;;;8354815;28;20488;-64
2021/09/03 14:06:59;;;;;;;4.80;4.40;;;46.60;28.80;;;;;;8372525;28;20041;-64
2021/09/03 14:11:00;;;;;;;5.15;4.50;;;48.30;27.50;;;;;;8372379;28;20107;-65
2021/09/03 14:15:00;;;;;;;5.50;3.95;;;48.80;26.60;;;;;;8357551;28;20028;-65
2021/09/03 14:19:01;;;;;;;6.68;3.97;;;46.70;27.30;;;;;;8359760;28;20639;-65
2021/09/03 14:23:02;;;;;;;4.72;4.05;;;46.90;27.60;;;;;;8363377;28;20024;-65
2021/09/03 14:27:04;;;;;;;5.90;4.10;;;47.10;28.10;;;;;;8346654;28;20404;-65
2021/09/03 14:31:04;;;;;;;6.25;5.03;;;47.20;28.00;;;;;;8346634;28;20057;-65
2021/09/03 14:35:05;;;;;;;4.95;4.55;;;47.50;28.40;;;;;;8352153;28;20123;-65
2021/09/03 14:39:07;;;;;;;7.78;5.32;;;46.20;29.40;;;;;;8372677;28;20097;-65
2021/09/03 14:43:07;;;;;;;5.35;4.85;;;46.20;29.90;;;;;;8367140;28;20036;-65
2021/09/03 14:47:08;;;;;;;8.45;5.07;;;47.20;29.60;;;;;;8375418;28;20102;-65
2021/09/03 14:51:08;;;;;;;5.90;5.20;;;47.40;29.70;;;;;;8369118;28;20037;-65
2021/09/03 14:55:10;;;;;;;6.20;4.95;;;47.30;28.80;;;;;;8356328;28;20051;-65
2021/09/03 14:59:11;;;;;;;5.30;4.80;;;46.70;29.70;;;;;;8368670;28;20017;-65
2021/09/03 15:03:11;;;;;;;5.63;5.13;;;47.30;29.40;;;;;;8365692;28;20025;-65
2021/09/03 15:07:12;;;;;;;5.65;5.13;;;47.30;29.50;;;;;;8367077;28;20351;-65
2021/09/03 15:11:12;;;;;;;8.27;5.50;;;45.20;30.70;;;;;;8366817;28;20037;-65
2021/09/03 15:15:13;;;;;;;5.22;4.72;;;44.50;31.50;;;;;;8360696;28;20025;-65
2021/09/03 15:19:14;;;;;;;6.35;5.20;;;42.70;33.30;;;;;;8340306;28;20028;-65
2021/09/03 15:23:14;;;;;;;7.20;5.10;;;41.70;34.50;;;;;;8373505;28;20056;-65
2021/09/03 15:27:15;;;;;;;8.88;5.93;;;40.50;35.40;;;;;;8370944;28;20029;-65
2021/09/03 15:31:15;;;;;;;5.85;5.30;;;39.20;38.10;;;;;;8359045;28;20032;-65
2021/09/03 15:35:16;;;;;;;10.32;7.57;;;39.40;37.80;;;;;;8363012;28;20025;-65
2021/09/03 15:39:16;;;;;;;;;;;39.40;37.90;;;;;;8366748;28;20057;-66
2021/09/03 15:43:17;;;;;;;;;;;39.60;34.90;;;;;;8361292;28;19965;-66
2021/09/03 15:47:18;;;;;;;;;;;39.10;38.10;;;;;;8368806;28;19915;-64
2021/09/03 15:51:18;;;;;;;;;;;39.00;37.00;;;;;;8378463;28;19920;-65
2021/09/03 15:55:19;;;;;;;;;;;38.60;38.00;;;;;;8375594;28;19908;-65
2021/09/03 15:59:19;;;;;;;;;;;38.50;39.20;;;;;;8346816;28;19913;-66
2021/09/03 16:03:19;;;;;;;;;;;40.20;37.30;;;;;;8390093;28;19943;-63
2021/09/03 16:07:20;;;;;;;;;;;39.50;48.50;;;;;;8380692;28;19908;-63
2021/09/03 16:11:20;;;;;;;;;;;39.60;37.80;;;;;;8381128;28;19959;-63
2021/09/03 16:15:21;;;;;;;;;;;39.70;36.60;;;;;;8377585;28;19912;-63
2021/09/03 16:19:22;;;;;;;;;;;38.90;37.40;;;;;;8360713;28;20368;-63
2021/09/03 16:23:23;;;;;;;;;;;39.90;37.20;;;;;;8356215;28;20080;-63
2021/09/03 16:27:23;;;;;;;;;;;38.90;37.40;;;;;;8368122;28;19924;-63
2021/09/03 16:31:27;;;;;;;;;;;37.80;39.20;;;;;;8372947;28;19912;-63
2021/09/03 16:35:28;;;;;;;;;;;37.50;40.60;;;;;;8368998;28;19917;-63
2021/09/03 16:39:28;;;;;;;;;;;38.70;39.50;;;;;;8371844;28;19966;-63
2021/09/03 16:43:29;;;;;;;;;;;38.60;38.40;;;;;;8376864;28;19908;-63
2021/09/03 16:47:29;;;;;;;;;;;37.80;40.60;;;;;;8371708;28;19923;-62
2021/09/03 16:51:31;;;;;;;;;;;36.50;42.60;;;;;;8384141;28;19984;-63
2021/09/03 16:55:31;;;;;;;;;;;;;;;;;;8378343;28;19912;-63
2021/09/03 16:59:32;;;;;;;;;;;34.90;44.30;;;;;;8375710;28;19988;-63
2021/09/03 17:03:33;;;;;;;6.07;4.63;;;;;;;;;;8378434;28;20007;-62
2021/09/03 17:07:34;;;;;;;7.97;6.15;;;30.30;94.20;;;;;;8377325;28;20025;-62
2021/09/03 17:11:34;;;;;;;9.50;5.60;;;28.00;64.40;;;;;;8377594;28;20025;-63
2021/09/03 17:15:35;;;;;;;8.95;5.13;;;26.10;66.30;;;;;;8360853;28;20025;-64
2021/09/03 17:19:35;;;;;;;9.80;5.47;;;24.70;73.30;;;;;;8374908;28;20024;-64
2021/09/03 17:23:37;;;;;;;7.25;5.22;;;24.00;74.60;;;;;;8367392;28;20029;-64
2021/09/03 17:27:38;;;;;;;6.47;5.22;;;23.40;79.20;;;;;;8381955;28;20024;-63
2021/09/03 17:31:39;;;;;;;11.27;7.22;;;22.80;85.30;;;;;;8378044;28;20515;-63
2021/09/03 17:35:41;;;;;;;33.63;28.80;;;22.30;94.10;;;;;;8375257;28;20037;-64
2021/09/03 17:39:42;;;;;;;18.92;16.85;;;22.00;97.60;;;;;;8363586;28;20025;-63
2021/09/03 17:43:43;;;;;;;32.20;24.42;;;21.80;99.90;;;;;;8379554;28;20033;-63
2021/09/03 17:47:44;;;;;;;11.82;6.97;;;21.50;99.90;;;;;;8372054;28;20114;-63
2021/09/03 17:51:45;;;;;;;14.82;9.82;;;20.90;99.90;;;;;;8390850;28;20032;-64
2021/09/03 17:55:45;;;;;;;33.08;24.83;;;20.50;99.90;;;;;;8375227;28;20029;-64
2021/09/03 17:59:48;;;;;;;48.08;39.80;;;20.20;99.90;;;;;;8371600;28;20032;-64
2021/09/03 18:03:49;;;;;;;69.03;53.95;;;20.10;99.90;;;;;;8358394;28;20028;-64
2021/09/03 18:07:50;;;;;;;48.38;38.85;;;19.80;99.90;;;;;;8374480;28;20512;-64
2021/09/03 18:11:50;;;;;;;29.83;23.33;;;19.50;99.90;;;;;;8390321;28;20040;-64
2021/09/03 18:15:51;;;;;;;22.92;15.65;;;19.10;99.90;;;;;;8390454;28;20017;-64
2021/09/03 18:19:52;;;;;;;45.17;34.42;;;19.00;99.90;;;;;;8387870;28;20025;-64
2021/09/03 18:23:54;;;;;;;33.70;26.58;;;18.90;99.90;;;;;;8366617;28;20099;-64
2021/09/03 18:27:57;;;;;;;26.63;17.95;;;18.60;99.90;;;;;;8372540;28;20123;-64
2021/09/03 18:31:57;;;;;;;45.10;31.30;;;18.40;99.90;;;;;;8391614;28;20028;-64
2021/09/03 18:35:58;;;;;;;34.30;21.17;;;18.00;99.90;;;;;;8382538;28;20040;-64
2021/09/03 18:39:58;;;;;;;20.60;13.60;;;17.70;99.90;;;;;;8376437;28;20063;-64
2021/09/03 18:43:59;;;;;;;13.00;10.82;;;17.50;99.90;;;;;;8356215;28;20055;-64
2021/09/03 18:48:00;;;;;;;33.15;23.10;;;17.30;99.90;;;;;;8375485;28;20489;-65
2021/09/03 18:52:03;;;;;;;43.25;29.73;;;17.20;99.90;;;;;;8370553;28;20036;-64
2021/09/03 18:56:04;;;;;;;28.90;21.52;;;17.20;99.90;;;;;;8359694;28;20029;-64
2021/09/03 19:00:05;;;;;;;94.03;61.60;;;17.00;99.90;;;;;;8371627;28;20467;-64
2021/09/03 19:04:05;;;;;;;66.95;45.83;;;17.00;99.90;;;;;;8355823;28;20043;-64
2021/09/03 19:08:06;;;;;;;16.70;12.13;;;16.70;99.90;;;;;;8339935;28;20083;-64
2021/09/03 19:12:07;;;;;;;41.17;27.98;;;16.50;99.90;;;;;;8357601;28;20083;-64
2021/09/03 19:16:08;;;;;;;38.25;21.90;;;16.50;99.90;;;;;;8387717;28;20032;-64
2021/09/03 19:20:11;;;;;;;19.23;12.98;;;16.40;99.90;;;;;;8373295;28;20024;-64
2021/09/03 19:24:12;;;;;;;19.48;12.40;;;16.10;99.90;;;;;;8373816;28;20028;-64
2021/09/03 19:28:13;;;;;;;20.90;13.27;;;15.90;99.90;;;;;;8391815;28;20036;-64
2021/09/03 19:32:14;;;;;;;34.45;20.00;;;15.80;99.90;;;;;;8391696;28;20381;-64
2021/09/03 19:36:14;;;;;;;20.45;12.57;;;16.00;99.90;;;;;;8391790;28;20021;-64
2021/09/03 19:40:15;;;;;;;10.80;8.13;;;15.90;99.90;;;;;;8391423;28;20028;-64
2021/09/03 19:44:16;;;;;;;22.95;13.05;;;15.60;99.90;;;;;;8373811;28;20024;-64
2021/09/03 19:48:16;;;;;;;13.00;9.35;;;15.40;99.90;;;;;;8381113;28;20025;-64
2021/09/03 19:52:17;;;;;;;14.32;10.15;;;15.60;99.90;;;;;;8386323;28;20032;-64
2021/09/03 19:56:21;;;;;;;13.32;9.07;;;15.40;99.90;;;;;;8358401;28;20075;-64
2021/09/03 20:00:22;;;;;;;16.60;9.07;;;14.80;99.90;;;;;;8362043;28;20052;-64
2021/09/03 20:04:22;;;;;;;13.02;8.85;;;14.50;99.90;;;;;;8391432;28;20033;-64
2021/09/03 20:08:23;;;;;;;11.48;8.60;;;14.40;99.90;;;;;;8391352;28;20032;-64
2021/09/03 20:12:23;;;;;;;13.90;9.15;;;14.40;99.90;;;;;;8391083;28;20492;-64
2021/09/03 20:16:24;;;;;;;10.65;8.98;;;14.70;99.90;;;;;;8379856;28;20017;-64
2021/09/03 20:20:24;;;;;;;12.52;7.72;;;14.80;99.90;;;;;;8369177;28;20029;-64
2021/09/03 20:24:25;;;;;;;13.60;9.88;;;14.60;99.90;;;;;;8363664;28;20033;-64
2021/09/03 20:28:26;;;;;;;14.25;9.95;;;14.30;99.90;;;;;;8364095;28;20032;-64
2021/09/03 20:32:26;;;;;;;10.65;8.70;;;14.10;99.90;;;;;;8347750;28;20025;-64
2021/09/03 20:36:27;;;;;;;11.85;8.50;;;14.10;99.90;;;;;;8363851;28;20079;-64
2021/09/03 20:40:29;;;;;;;11.70;8.85;;;13.90;99.90;;;;;;8394849;23;20029;-94
2021/09/03 20:44:30;;;;;;;14.05;9.48;;;13.80;99.90;;;;;;8424450;28;20020;-95
2021/09/03 20:48:30;;;;;;;10.93;8.90;;;14.00;99.90;;;;;;8413344;28;20009;-95
2021/09/03 20:52:31;;;;;;;10.57;8.45;;;13.90;99.90;;;;;;8392209;28;20013;-95
2021/09/03 20:56:31;;;;;;;11.73;8.32;;;13.70;99.90;;;;;;8391858;28;20005;-95
2021/09/03 21:00:32;;;;;;;15.50;8.98;;;13.60;99.90;;;;;;8391856;28;20001;-95
2021/09/03 21:04:33;;;;;;;10.45;8.25;;;13.40;99.90;;;;;;8391617;28;20035;-94
2021/09/03 21:08:33;;;;;;;10.77;8.55;;;13.60;99.90;;;;;;8391903;28;20012;-95
2021/09/03 21:12:34;;;;;;;12.77;8.27;;;13.70;99.90;;;;;;8391472;28;20052;-96
2021/09/03 21:16:34;;;;;;;12.10;8.43;;;13.50;99.90;;;;;;8404243;28;20036;-95